createdAt,value
2023-05-19T00:01:32.106Z,3.65
2023-05-19T00:06:34.490Z,3.63
2023-05-19T00:11:40.944Z,3.80
2023-05-19T00:16:48.850Z,3.60
2023-05-19T00:21:55.287Z,3.40
2023-05-19T00:27:00.083Z,4.10
2023-05-19T00:32:04.291Z,4.40
2023-05-19T00:37:08.557Z,4.17
2023-05-19T00:42:12.454Z,3.53
2023-05-19T00:47:14.180Z,3.67
2023-05-19T00:52:15.909Z,4.40
2023-05-19T00:57:22.918Z,4.07
2023-05-19T01:02:32.457Z,3.70
2023-05-19T01:07:34.549Z,3.50
2023-05-19T01:12:37.575Z,3.80
2023-05-19T01:18:12.099Z,4.03
2023-05-19T01:24:09.206Z,3.10
2023-05-19T01:29:21.993Z,3.70
2023-05-19T01:34:26.148Z,3.40
2023-05-19T01:39:28.496Z,3.50
2023-05-19T01:44:33.592Z,4.10
2023-05-19T01:49:37.485Z,3.43
2023-05-19T01:54:42.225Z,4.30
2023-05-19T02:00:00.768Z,4.13
2023-05-19T02:05:14.564Z,4.77
2023-05-19T02:10:25.822Z,5.10
2023-05-19T02:15:38.686Z,4.90
2023-05-19T02:20:42.971Z,4.80
2023-05-19T02:25:50.184Z,5.63
2023-05-19T02:30:51.989Z,5.50
2023-05-19T02:35:53.713Z,5.67
2023-05-19T02:40:58.662Z,4.30
2023-05-19T02:46:05.452Z,5.00
2023-05-19T02:51:07.184Z,4.20
2023-05-19T02:56:08.990Z,4.77
2023-05-19T03:01:12.853Z,4.50
2023-05-19T03:06:18.078Z,4.57
2023-05-19T03:11:19.960Z,4.50
2023-05-19T03:16:22.057Z,4.60
2023-05-19T03:21:26.327Z,4.60
2023-05-19T03:26:29.379Z,4.93
2023-05-19T03:31:34.936Z,4.30
2023-05-19T03:36:39.414Z,5.00
2023-05-19T03:41:47.900Z,5.70
2023-05-19T03:46:52.629Z,5.33
2023-05-19T03:52:17.452Z,5.30
2023-05-19T03:57:36.347Z,5.10
2023-05-19T04:02:38.357Z,5.57
2023-05-19T04:07:43.063Z,5.00
2023-05-19T04:12:44.793Z,5.37
2023-05-19T04:17:46.585Z,5.40
2023-05-19T04:22:48.359Z,5.73
2023-05-19T04:27:50.080Z,5.10
2023-05-19T04:32:52.109Z,5.47
2023-05-19T04:37:54.442Z,5.80
2023-05-19T04:43:02.225Z,5.70
2023-05-19T04:48:05.341Z,4.77
2023-05-19T04:53:07.285Z,5.13
2023-05-19T04:58:11.562Z,4.60
2023-05-19T05:03:16.491Z,4.83
2023-05-19T05:08:24.622Z,4.33
2023-05-19T05:13:32.930Z,4.37
2023-05-19T05:18:36.655Z,5.10
2023-05-19T05:23:41.720Z,5.03
2023-05-19T05:28:47.129Z,5.37
2023-05-19T05:33:49.927Z,4.57
2023-05-19T05:38:55.386Z,3.97
2023-05-19T05:43:58.266Z,3.73
2023-05-19T05:49:00.528Z,3.63
2023-05-19T05:54:08.827Z,3.90
2023-05-19T05:59:15.253Z,4.07
2023-05-19T06:04:22.709Z,3.57
2023-05-19T06:09:24.605Z,4.05
2023-05-19T06:14:29.201Z,3.75
2023-05-19T06:20:00.806Z,3.20
2023-05-19T06:25:03.632Z,3.25
2023-05-19T06:30:08.592Z,3.97
2023-05-19T06:35:18.652Z,4.28
2023-05-19T06:40:20.737Z,4.18
2023-05-19T06:45:27.503Z,3.83
2023-05-19T06:50:34.352Z,4.30
2023-05-19T06:55:47.189Z,4.40
2023-05-19T07:00:58.440Z,4.40
2023-05-19T07:06:07.115Z,4.55
2023-05-19T07:11:15.498Z,4.50
2023-05-19T07:16:18.445Z,4.88
2023-05-19T07:21:20.566Z,4.25
2023-05-19T07:26:23.853Z,4.68
2023-05-19T07:31:26.156Z,4.50
2023-05-19T07:36:27.983Z,4.47
2023-05-19T07:41:32.551Z,3.67
2023-05-19T07:46:35.976Z,4.30
2023-05-19T07:51:37.767Z,4.13
2023-05-19T07:56:44.365Z,3.47
2023-05-19T08:01:48.726Z,4.53
2023-05-19T08:06:52.329Z,4.40
2023-05-19T08:11:54.204Z,3.20
2023-05-19T08:16:56.450Z,3.47
2023-05-19T08:22:01.121Z,3.42
2023-05-19T08:27:05.773Z,4.30
2023-05-19T08:32:12.966Z,5.07
2023-05-19T08:37:15.096Z,4.70
2023-05-19T08:42:17.404Z,5.63
2023-05-19T08:47:19.817Z,5.43
2023-05-19T08:52:30.636Z,5.38
2023-05-19T08:57:34.803Z,4.95
2023-05-19T09:02:50.468Z,5.00
2023-05-19T09:08:03.525Z,5.10
2023-05-19T09:13:09.821Z,5.03
2023-05-19T09:18:17.408Z,5.00
2023-05-19T09:23:20.969Z,5.10
2023-05-19T09:28:30.726Z,5.18
2023-05-19T09:33:37.452Z,5.15
2023-05-19T09:38:41.867Z,5.43
2023-05-19T09:43:43.835Z,4.57
2023-05-19T09:48:47.878Z,4.88
2023-05-19T09:53:49.680Z,5.47
2023-05-19T09:58:52.483Z,5.00
2023-05-19T10:03:57.260Z,4.38
2023-05-19T10:08:59.227Z,4.15
2023-05-19T10:14:03.411Z,3.80
2023-05-19T10:19:09.530Z,3.55
2023-05-19T10:24:13.848Z,3.50
2023-05-19T10:29:20.908Z,4.50
2023-05-19T10:34:34.799Z,5.20
2023-05-19T10:39:39.721Z,3.63
2023-05-19T10:45:00.901Z,3.40
2023-05-19T10:50:04.735Z,3.10
2023-05-19T10:55:15.690Z,2.92
2023-05-19T11:00:28.330Z,3.30
2023-05-19T11:05:30.249Z,3.38
2023-05-19T11:10:32.211Z,2.97
2023-05-19T11:15:40.842Z,3.28
2023-05-19T11:20:42.639Z,3.22
2023-05-19T11:25:50.821Z,3.72
2023-05-19T11:30:54.690Z,3.40
2023-05-19T11:35:59.075Z,3.45
2023-05-19T11:41:01.517Z,3.33
2023-05-19T11:46:03.424Z,2.83
2023-05-19T11:51:06.821Z,3.22
2023-05-19T11:56:14.881Z,2.88
2023-05-19T12:01:17.307Z,3.38
2023-05-19T12:06:19.332Z,2.97
2023-05-19T12:11:21.743Z,3.40
2023-05-19T12:16:23.597Z,3.63
2023-05-19T12:21:34.269Z,3.55
2023-05-19T12:26:37.556Z,3.60
2023-05-19T12:31:39.740Z,3.88
2023-05-19T12:36:46.568Z,3.05
2023-05-19T12:41:48.342Z,3.10
2023-05-19T12:46:52.269Z,2.65
2023-05-19T12:51:56.218Z,2.90
2023-05-19T12:56:58.780Z,2.95
2023-05-19T13:02:03.635Z,3.47
2023-05-19T13:07:10.285Z,2.45
2023-05-19T13:12:14.553Z,3.38
2023-05-19T13:17:16.343Z,2.75
2023-05-19T13:22:18.407Z,2.53
2023-05-19T13:27:20.218Z,2.58
2023-05-19T13:32:24.183Z,2.33
2023-05-19T13:37:28.375Z,2.72
2023-05-19T13:42:30.214Z,2.47
2023-05-19T13:47:36.913Z,2.15
2023-05-19T13:52:38.655Z,2.45
2023-05-19T13:57:42.170Z,2.83
2023-05-19T14:02:48.318Z,2.20
2023-05-19T14:07:52.560Z,2.60
2023-05-19T14:13:25.882Z,2.55
2023-05-19T14:18:16.727Z,2.33
2023-05-19T14:23:20.088Z,2.60
2023-05-19T14:28:21.828Z,2.30
2023-05-19T14:33:24.041Z,2.20
2023-05-19T14:38:27.583Z,2.35
2023-05-19T14:43:32.452Z,2.67
2023-05-19T14:48:36.528Z,2.42
2023-05-19T14:53:38.324Z,2.45
2023-05-19T14:58:44.978Z,2.10
2023-05-19T15:03:51.572Z,2.30
2023-05-19T15:08:55.753Z,2.38
2023-05-19T15:14:08.137Z,2.35
2023-05-19T15:19:12.567Z,2.00
2023-05-19T15:24:16.921Z,2.13
2023-05-19T15:29:20.919Z,2.20
2023-05-19T15:34:25.552Z,2.45
2023-05-19T15:39:29.604Z,2.10
2023-05-19T15:44:31.388Z,2.47
2023-05-19T15:49:33.310Z,2.53
2023-05-19T15:54:35.050Z,2.20
2023-05-19T15:59:39.318Z,2.15
2023-05-19T16:04:44.045Z,1.73
2023-05-19T16:09:45.950Z,2.35
2023-05-19T16:14:52.973Z,1.98
2023-05-19T16:19:59.769Z,2.20
2023-05-19T16:25:04.370Z,2.33
2023-05-19T16:30:06.838Z,2.20
2023-05-19T16:35:11.046Z,2.10
2023-05-19T16:40:13.192Z,2.08
2023-05-19T16:45:17.687Z,2.40
2023-05-19T16:50:19.437Z,1.85
2023-05-19T16:55:22.676Z,1.70
2023-05-19T17:00:24.540Z,2.20
2023-05-19T17:05:29.098Z,2.40
2023-05-19T17:10:31.050Z,2.35
2023-05-19T17:15:33.894Z,2.00
2023-05-19T17:20:40.324Z,2.30
2023-05-19T17:25:42.126Z,2.30
2023-05-19T17:30:43.911Z,2.38
2023-05-19T17:35:45.730Z,2.58
2023-05-19T17:40:47.752Z,2.40
2023-05-19T17:45:54.415Z,2.65
2023-05-19T17:50:59.586Z,2.90
2023-05-19T17:56:07.386Z,3.28
2023-05-19T18:01:09.506Z,2.53
2023-05-19T18:06:12.033Z,2.97
2023-05-19T18:11:16.121Z,2.80
2023-05-19T18:16:20.323Z,2.50
2023-05-19T18:21:24.331Z,2.22
2023-05-19T18:26:26.155Z,2.63
2023-05-19T18:31:30.123Z,3.05
2023-05-19T18:36:32.012Z,2.70
2023-05-19T18:41:34.282Z,2.80
2023-05-19T18:46:38.394Z,2.67
2023-05-19T18:51:40.195Z,3.30
2023-05-19T18:56:44.199Z,2.63
2023-05-19T19:01:46.055Z,2.75
2023-05-19T19:06:48.420Z,2.70
2023-05-19T19:11:52.474Z,3.50
2023-05-19T19:16:56.643Z,3.22
2023-05-19T19:21:58.563Z,3.00
2023-05-19T19:27:02.727Z,3.10
2023-05-19T19:32:07.310Z,2.85
2023-05-19T19:37:09.143Z,3.08
2023-05-19T19:42:10.861Z,3.00
2023-05-19T19:47:12.750Z,3.13
2023-05-19T19:52:17.533Z,3.20
2023-05-19T19:57:22.080Z,3.15
2023-05-19T20:02:26.462Z,2.58
2023-05-19T20:07:28.948Z,3.22
2023-05-19T20:12:35.149Z,3.15
2023-05-19T20:17:37.431Z,3.17
2023-05-19T20:22:41.564Z,2.58
2023-05-19T20:27:45.918Z,3.03
2023-05-19T20:32:48.578Z,3.47
2023-05-19T20:37:50.327Z,2.20
2023-05-19T20:42:52.208Z,2.72
2023-05-19T20:47:53.975Z,2.88
2023-05-19T20:52:55.713Z,2.50
2023-05-19T20:57:57.477Z,2.70
2023-05-19T21:03:01.582Z,2.78
2023-05-19T21:08:03.647Z,2.90
2023-05-19T21:13:07.691Z,2.83
2023-05-19T21:18:11.704Z,2.60
2023-05-19T21:23:20.688Z,3.10
2023-05-19T21:28:25.004Z,2.70
2023-05-19T21:33:26.805Z,2.70
2023-05-19T21:38:28.549Z,2.53
2023-05-19T21:43:30.319Z,2.60
2023-05-19T21:48:34.306Z,2.72
2023-05-19T21:53:38.402Z,3.38
2023-05-19T21:58:40.109Z,2.67
2023-05-19T22:03:42.080Z,2.60
2023-05-19T22:08:43.868Z,3.53
2023-05-19T22:13:50.494Z,2.63
2023-05-19T22:18:55.349Z,2.58
2023-05-19T22:23:57.095Z,2.25
2023-05-19T22:29:01.042Z,2.67
2023-05-19T22:34:05.214Z,2.65
2023-05-19T22:39:09.374Z,2.72
2023-05-19T22:44:15.399Z,3.00
2023-05-19T22:49:17.253Z,2.08
2023-05-19T22:54:18.957Z,2.53
2023-05-19T22:59:25.333Z,2.30
2023-05-19T23:04:30.229Z,2.30
2023-05-19T23:09:36.313Z,2.70
2023-05-19T23:14:40.347Z,2.40
2023-05-19T23:19:42.119Z,2.10
2023-05-19T23:24:43.805Z,2.20
2023-05-19T23:29:51.244Z,2.78
2023-05-19T23:34:55.029Z,2.25
2023-05-19T23:39:59.713Z,2.50
2023-05-19T23:45:01.437Z,2.22
2023-05-19T23:50:05.762Z,2.22
2023-05-19T23:55:08.333Z,2.13
